Flight Track Log - Related Links

Times and Time Zones

All times are in EDT time to prevent confusion due to time zone crossing. See the SWA561 flight status page for this flight to view local times or setup timezone preferences in your user account.

Time Position Orientation Groundspeed Altitude Reporting Facility
EDT Latitude Longitude Course Direction KTS MPH feet Rate Location/Type
Fri 11:23:04 PM 33.9383 -118.5236 263° West 212 244 3,500  Level Los Angeles Center
Fri 11:24:06 PM 33.9289 -118.6122 263° West 261 300 6,800 3,387 Climbing Los Angeles Center
Fri 11:25:08 PM 33.9139 -118.7078 259° West 271 312 10,500 2,710 Climbing Los Angeles Center
Fri 11:26:10 PM 33.8994 -118.8050 260° West 313 360 12,400 2,537 Climbing Los Angeles Center
Fri 11:27:11 PM 33.9078 -118.9117 275° West 331 381 15,700 3,220 Climbing Los Angeles Center
Fri 11:28:13 PM 33.9758 -118.9997 313° West 355 409 19,000 3,871 Climbing Los Angeles Center
Fri 11:29:15 PM 34.0475 -119.1047 309° West 335 386 23,700 3,484 Climbing Los Angeles Center
Fri 11:30:17 PM 34.1078 -119.1942 309° West 344 396 26,200 2,468 Climbing Los Angeles Center
Fri 11:31:19 PM 34.1717 -119.2847 310° West 354 407 28,800 1,839 Climbing Los Angeles Center
Fri 11:32:21 PM 34.2350 -119.3772 310° West 358 412 30,000 585 Climbing Los Angeles Center
Fri 11:33:22 PM 34.2997 -119.4692 310° West 359 413 30,000 732 Level Los Angeles Center
Fri 11:34:24 PM 34.3664 -119.5675 309° West 361 415 31,500 1,742 Climbing Los Angeles Center
Fri 11:35:26 PM 34.4294 -119.6572 310° West 367 422 33,600 1,210 Climbing Los Angeles Center
Fri 11:36:28 PM 34.5061 -119.7717 309° West 364 419 34,000 194 Climbing Los Angeles Center
Fri 11:37:30 PM 34.5811 -119.8517 319° Northwest 360 414 34,000  Level Los Angeles Center
Fri 11:38:31 PM 34.6597 -119.9350 319° Northwest 362 417 34,000  Level Los Angeles Center
Fri 11:39:33 PM 34.7342 -120.0161 318° Northwest 362 417 34,000  Level Los Angeles Center
Fri 11:40:35 PM 34.8100 -120.1008 317° Northwest 369 425 34,000  Level Los Angeles Center
Fri 11:41:37 PM 34.8792 -120.1761 318° Northwest 370 426 34,000  Level Los Angeles Center
Fri 11:42:38 PM 34.9703 -120.2767 318° Northwest 372 428 34,000  Level Los Angeles Center
Fri 11:43:40 PM 35.0464 -120.3606 318° Northwest 373 429 34,000  Level Los Angeles Center
Fri 11:44:42 PM 35.1233 -120.4458 318° Northwest 376 433 34,000  Level Los Angeles Center
Fri 11:45:44 PM 35.2003 -120.5311 318° Northwest 377 434 34,000  Level Los Angeles Center
Fri 11:46:45 PM 35.2769 -120.6183 317° Northwest 378 435 34,000  Level Los Angeles Center
Fri 11:47:47 PM 35.3544 -120.7039 318° Northwest 377 434 34,000  Level Los Angeles Center
Fri 11:48:14 PM 35.3994 -120.7542 318° Northwest 368 423 34,000  Level Oakland Center
Fri 11:49:15 PM 35.4764 -120.8406 318° Northwest 372 428 34,000  Level Oakland Center
Fri 11:50:16 PM 35.5544 -120.9283 318° Northwest 377 434 34,000  Level Oakland Center
Fri 11:51:17 PM 35.6308 -121.0158 317° Northwest 376 433 34,000 -344 Level Oakland Center
Fri 11:52:18 PM 35.7075 -121.1033 317° Northwest 376 433 33,300 -843 Descending Oakland Center
Fri 11:53:18 PM 35.7844 -121.1903 318° Northwest 374 430 32,300 -992 Descending Oakland Center
Fri 11:54:19 PM 35.8594 -121.2758 317° Northwest 369 425 31,300 -1,033 Descending Oakland Center
Fri 11:55:20 PM 35.9336 -121.3603 317° Northwest 365 420 30,200 -639 Descending Oakland Center
Fri 11:56:21 PM 36.0072 -121.4436 318° Northwest 360 414 30,000 -98 Descending Oakland Center
Fri 11:57:22 PM 36.0853 -121.5350 317° Northwest 384 442 30,000  Level Oakland Center
Fri 11:58:23 PM 36.1625 -121.6244 317° Northwest 382 440 30,000 -694 Level Oakland Center
Fri 11:59:23 PM 36.2719 -121.7042 330° Northwest 381 438 28,600 -1,736 Descending Oakland Center
Sat 12:00:24 AM 36.3669 -121.7550 337° Northwest 372 428 26,500 -2,066 Descending Oakland Center
Sat 12:01:25 AM 36.4572 -121.8067 335° Northwest 358 412 24,400 -2,213 Descending Oakland Center
Sat 12:02:26 AM 36.5367 -121.8519 335° Northwest 331 381 22,000 -2,066 Descending Oakland Center
Sat 12:03:27 AM 36.6194 -121.8967 337° Northwest 324 373 20,200 -1,406 Descending Oakland Center
Sat 12:04:34 AM 36.7167 -121.9500 336° Northwest 304 350 19,000 -1,370 Descending Northern Cal TRACON
Sat 12:05:34 AM 36.8000 -121.9833 342° North 317 365 17,300 -1,700 Descending Northern Cal TRACON
Sat 12:06:34 AM 36.8833 -122.0000 351° North 308 354 15,600 -1,500 Descending Northern Cal TRACON
Sat 12:07:30 AM 36.9456 -122.0153 349° North 307 353 14,400 -1,436 Descending Oakland Center
Sat 12:08:31 AM 37.0228 -122.0386 346° North 292 336 12,800 -1,525 Descending Oakland Center
Sat 12:09:32 AM 37.0994 -122.0567 349° North 282 325 11,300 -1,686 Descending Oakland Center
Sat 12:10:32 AM 37.1750 -122.0764 348° North 277 319 9,400 -1,587 Descending Oakland Center
Sat 12:11:33 AM 37.2639 -122.1000 348° North 271 312 8,100 -836 Descending Oakland Center
Sat 12:12:34 AM 37.3281 -122.1158 349° North 240 276 7,700 -984 Descending Oakland Center
Sat 12:13:35 AM 37.3931 -122.1347 347° North 239 275 6,100 -1,475 Descending Oakland Center
Sat 12:14:36 AM 37.4558 -122.1500 349° North 234 269 4,700 -1,082 Descending Oakland Center
Sat 12:15:37 AM 37.5114 -122.1686 345° North 216 249 3,900 -893 Descending Oakland Center
Sat 12:16:37 AM 37.5444 -122.2033 320° Northwest 182 209 2,900 -992 Descending Oakland Center
Sat 12:17:38 AM 37.5642 -122.2478 299° West 158 182 1,900 -836 Descending Oakland Center
Sat 12:18:39 AM 37.5803 -122.2883 297° West 143 165 1,200 -738 Descending Oakland Center
Sat 12:19:40 AM 37.5983 -122.3303 299° West 137 158 400 11,213 Descending Oakland Center
Sat 12:20:41 AM 37.6189 -122.3769 299° West 137 158 24,000 23,213 Climbing Oakland Center
Sat 12:22:00 AM 37.6167 -122.3667 322° Northwest  Level FlightAware Approximate
Sat 12:29:00 AM 37.6191 -122.3752 322° Northwest  Level Estimated

Login

Don't have an account? Register now (free) for customized features, flight alerts, and more!